KCAR

Caribou Municipal Airport

Caribou, Maine, USA
METAR KCAR 220454Z AUTO 00000KT 10SM CLR 06/03 A2996 RMK AO2 SLP151 T00610028 401830061
Observed Flight Rules
Jun-22 @ 04:54 UTC (50 minutes ago) Visual Flight Rules
Visibility Clouds
10 miles
  • Clear skies
Temperatures Readings
Current 6°C / 43°F
Dewpoint 3°C / 37°F
Humidity 81%
Altimeter 29.96" Hg
Pressure 1015.1 hPa
Elevation 191
METAR KCAR 220454Z AUTO 00000KT 10SM CLR 06/03 A2996 RMK AO2 SLP151 T00610028 401830061
Observed Flight Rules
Jun-22 @ 04:54 UTC
(50 minutes ago)
VFR
Clouds
  • Clear skies
Temperature Dewpoint
6°C / 43°F 3°C / 37°F
Humidity Altimeter Pressure
81% 29.96" Hg 1015.1 hPa